Time;durP1;ratioP1;P1;durP2;ratioP2;P2;SDS_P1;SDS_P2;PMS_P1;PMS_P2;Temp;Humidity;BMP_temperature;BMP_pressure;BME280_temperature;BME280_humidity;BME280_pressure;Samples;Min_cycle;Max_cycle;Signal;HPM_P1;HPM_P2
2023/05/26 00:00:28;;;;;;;;;;;;;;;16.08;59.11;98917.19;7380708;19;19927;-80
2023/05/26 00:02:55;;;;;;;;;;;;;;;16.13;60.47;98917.50;7370283;19;20016;-79
2023/05/26 00:05:21;;;;;;;;;;;;;;;16.06;58.87;98924.56;7379478;19;19927;-78
2023/05/26 00:07:48;;;;;;;;;;;;;;;16.11;59.45;98926.69;7369392;19;20257;-79
2023/05/26 00:10:15;;;;;;;;;;;;;;;15.91;58.46;98931.69;7378225;19;19942;-79
2023/05/26 00:12:49;;;;;;;;;;;;;;;15.92;59.17;98928.00;7369438;19;19915;-79
2023/05/26 00:15:16;;;;;;;;;;;;;;;15.98;60.61;98930.81;7377736;19;19922;-79
2023/05/26 00:17:43;;;;;;;;;;;;;;;15.97;60.08;98934.47;7378348;19;19923;-79
2023/05/26 00:20:10;;;;;;;;;;;;;;;16.00;58.95;98931.44;7377441;19;19919;-78
2023/05/26 00:22:37;;;;;;;;;;;;;;;15.94;59.18;98920.66;7376026;19;19914;-78
2023/05/26 00:25:05;;;;;;;;;;;;;;;15.90;59.07;98919.31;7369322;19;19918;-78
2023/05/26 00:27:32;;;;;;;;;;;;;;;15.82;59.28;98922.03;7376957;19;19933;-80
2023/05/26 00:29:58;;;;;;;;;;;;;;;15.82;59.26;98917.53;7371409;19;19915;-79
2023/05/26 00:32:25;;;;;;;;;;;;;;;15.79;59.96;98921.38;7372965;19;19978;-78
2023/05/26 00:34:52;;;;;;;;;;;;;;;15.75;59.79;98928.09;7374249;19;19919;-78
2023/05/26 00:37:19;;;;;;;;;;;;;;;15.76;60.00;98932.41;7376566;19;19915;-78
2023/05/26 00:39:46;;;;;;;;;;;;;;;15.72;59.68;98927.63;7372521;19;19939;-78
2023/05/26 00:42:12;;;;;;;;;;;;;;;15.73;60.70;98926.59;7373676;19;20355;-78
2023/05/26 00:44:39;;;;;;;;;;;;;;;15.70;59.51;98926.97;7377394;19;20347;-79
2023/05/26 00:47:06;;;;;;;;;;;;;;;15.65;59.27;98931.97;7372477;19;19918;-79
2023/05/26 00:49:33;;;;;;;;;;;;;;;15.67;60.54;98928.09;7377419;19;20341;-78
2023/05/26 00:51:59;;;;;;;;;;;;;;;15.72;60.88;98924.97;7369861;19;19949;-79
2023/05/26 00:54:27;;;;;;;;;;;;;;;15.63;59.58;98934.78;7380997;19;19914;-80
2023/05/26 00:56:55;;;;;;;;;;;;;;;15.63;59.55;98931.28;7371960;19;20431;-79
2023/05/26 00:59:21;;;;;;;;;;;;;;;15.59;58.72;98938.81;7373983;19;20758;-78
2023/05/26 01:01:49;;;;;;;;;;;;;;;15.63;59.22;98936.63;7369617;19;19945;-78
2023/05/26 01:04:16;;;;;;;;;;;;;;;15.65;60.05;98922.09;7374150;19;20334;-79
2023/05/26 01:06:44;;;;;;;;;;;;;;;15.57;58.71;98938.16;7370924;19;19919;-78
2023/05/26 01:09:13;;;;;;;;;;;;;;;15.56;59.75;98928.47;7375084;19;19919;-78
2023/05/26 01:11:41;;;;;;;;;;;;;;;15.55;60.11;98927.66;7376173;19;19947;-78
2023/05/26 01:14:12;;;;;;;;;;;;;;;15.57;60.48;98928.31;7369382;19;20285;-78
2023/05/26 01:16:52;;;;;;;;;;;;;;;15.61;60.27;98920.78;7373987;19;19934;-78
2023/05/26 01:19:37;;;;;;;;;;;;;;;15.59;60.82;98938.81;7375118;19;20287;-79
2023/05/26 01:22:13;;;;;;;;;;;;;;;15.63;61.51;98932.13;7365325;19;19922;-78
2023/05/26 01:24:40;;;;;;;;;;;;;;;15.62;59.95;98927.81;7374265;19;19934;-79
2023/05/26 01:27:26;;;;;;;;;;;;;;;15.58;59.82;98929.13;7372286;19;19933;-77
2023/05/26 01:29:53;;;;;;;;;;;;;;;15.58;59.46;98931.81;7374142;19;20372;-78
2023/05/26 01:32:19;;;;;;;;;;;;;;;15.61;59.85;98934.13;7385000;19;19928;-78
2023/05/26 01:34:47;;;;;;;;;;;;;;;15.59;60.35;98934.31;7387873;19;19927;-77
2023/05/26 01:37:15;;;;;;;;;;;;;;;15.53;59.88;98934.16;7386582;19;19930;-78
2023/05/26 01:39:42;;;;;;;;;;;;;;;15.59;60.21;98930.81;7387068;19;19918;-77
2023/05/26 01:42:24;;;;;;;;;;;;;;;15.59;59.79;98936.16;7383909;19;20017;-78
2023/05/26 01:45:17;;;;;;;;;;;;;;;15.53;59.22;98931.50;7383528;19;19933;-78
2023/05/26 01:47:45;;;;;;;;;;;;;;;15.59;58.91;98936.16;7383956;19;19926;-78
2023/05/26 01:50:12;;;;;;;;;;;;;;;15.56;59.46;98933.81;7386657;19;19930;-78
2023/05/26 01:52:41;;;;;;;;;;;;;;;15.62;59.08;98935.81;7383605;19;19918;-79
2023/05/26 01:55:08;;;;;;;;;;;;;;;15.64;59.13;98925.78;7379692;19;19946;-78
2023/05/26 01:57:34;;;;;;;;;;;;;;;15.55;59.21;98935.66;7384416;19;19914;-79
2023/05/26 02:00:03;;;;;;;;;;;;;;;15.60;59.63;98948.47;7383685;19;19922;-78
2023/05/26 02:02:40;;;;;;;;;;;;;;;15.62;59.51;98935.81;7389021;19;19958;-78
2023/05/26 02:05:07;;;;;;;;;;;;;;;15.53;59.16;98937.69;7383094;19;19922;-78
2023/05/26 02:07:35;;;;;;;;;;;;;;;15.55;59.30;98937.50;7380894;19;19929;-80
2023/05/26 02:10:02;;;;;;;;;;;;;;;15.62;59.47;98934.97;7384248;19;19947;-77
2023/05/26 02:12:29;;;;;;;;;;;;;;;15.51;59.42;98941.53;7385947;19;19923;-78
2023/05/26 02:14:56;;;;;;;;;;;;;;;15.56;59.96;98939.13;7385627;19;19992;-77
2023/05/26 02:17:23;;;;;;;;;;;;;;;15.55;59.48;98932.16;7388052;19;19933;-78
2023/05/26 02:19:50;;;;;;;;;;;;;;;15.52;59.33;98937.84;7383663;19;19925;-78
2023/05/26 02:22:18;;;;;;;;;;;;;;;15.45;59.75;98940.34;7380134;19;20005;-78
2023/05/26 02:24:45;;;;;;;;;;;;;;;15.49;61.23;98940.88;7383705;19;19930;-79
2023/05/26 02:27:12;;;;;;;;;;;;;;;15.41;60.36;98935.56;7382211;19;19922;-78
2023/05/26 02:29:39;;;;;;;;;;;;;;;15.42;62.55;98939.88;7388540;19;19949;-78
2023/05/26 02:32:05;;;;;;;;;;;;;;;15.44;61.87;98940.56;7381189;19;20390;-78
2023/05/26 02:34:32;;;;;;;;;;;;;;;15.43;61.74;98939.72;7389081;19;19950;-78
2023/05/26 02:36:59;;;;;;;;;;;;;;;15.36;62.21;98944.91;7378857;19;20359;-78
2023/05/26 02:39:26;;;;;;;;;;;;;;;15.31;63.07;98947.25;7386563;19;19911;-78
2023/05/26 02:41:53;;;;;;;;;;;;;;;15.29;63.39;98937.75;7372329;19;19926;-78
2023/05/26 02:44:28;;;;;;;;;;;;;;;15.22;63.04;98944.78;7386640;19;20351;-79
2023/05/26 02:46:55;;;;;;;;;;;;;;;15.17;62.95;98934.66;7387950;19;19921;-79
2023/05/26 02:49:23;;;;;;;;;;;;;;;15.08;62.59;98941.81;7382784;19;19919;-78
2023/05/26 02:51:50;;;;;;;;;;;;;;;15.09;63.33;98932.00;7380006;19;19918;-78
2023/05/26 02:54:17;;;;;;;;;;;;;;;15.09;63.33;98940.84;7381262;19;19931;-79
2023/05/26 02:56:43;;;;;;;;;;;;;;;15.07;63.58;98932.16;7378322;19;19921;-78
2023/05/26 02:59:11;;;;;;;;;;;;;;;15.06;64.21;98937.66;7375164;19;20514;-78
2023/05/26 03:01:38;;;;;;;;;;;;;;;14.99;63.59;98929.53;7381846;19;19925;-79
2023/05/26 03:04:05;;;;;;;;;;;;;;;14.89;62.61;98934.22;7384558;19;19923;-78
2023/05/26 03:06:32;;;;;;;;;;;;;;;14.84;62.15;98937.38;7388895;19;19934;-79
2023/05/26 03:08:59;;;;;;;;;;;;;;;14.90;64.15;98931.38;7389631;19;19923;-78
2023/05/26 03:11:25;;;;;;;;;;;;;;;14.85;63.62;98933.72;7389187;19;20005;-78
2023/05/26 03:13:52;;;;;;;;;;;;;;;14.80;63.62;98933.41;7381118;19;20002;-78
2023/05/26 03:16:19;;;;;;;;;;;;;;;14.82;62.42;98931.38;7384703;19;19987;-78
2023/05/26 03:18:47;;;;;;;;;;;;;;;14.83;62.21;98927.72;7390510;19;19931;-78
2023/05/26 03:21:13;;;;;;;;;;;;;;;14.88;64.11;98919.25;7386123;19;19935;-78
2023/05/26 03:24:01;;;;;;;;;;;;;;;14.92;64.07;98934.69;7388550;19;20617;-78
2023/05/26 03:26:28;;;;;;;;;;;;;;;15.04;63.34;98929.84;7389303;19;19938;-78
2023/05/26 03:28:59;;;;;;;;;;;;;;;14.92;63.55;98932.03;7385244;19;21206;-78
2023/05/26 03:31:26;;;;;;;;;;;;;;;14.88;62.92;98927.22;7382012;19;19919;-78
2023/05/26 03:33:53;;;;;;;;;;;;;;;14.85;63.46;98933.72;7381294;19;19926;-79
2023/05/26 03:36:20;;;;;;;;;;;;;;;14.81;62.92;98924.41;7383349;19;19923;-78
2023/05/26 03:38:48;;;;;;;;;;;;;;;14.77;62.66;98930.22;7384730;19;19923;-78
2023/05/26 03:41:15;;;;;;;;;;;;;;;14.83;63.22;98927.72;7380707;19;19939;-79
2023/05/26 03:43:50;;;;;;;;;;;;;;;14.72;62.87;98933.41;7386245;19;19925;-78
2023/05/26 03:46:17;;;;;;;;;;;;;;;14.76;63.21;98933.91;7386635;19;19922;-78
2023/05/26 03:48:44;;;;;;;;;;;;;;;14.76;63.03;98939.22;7389209;19;19947;-78
2023/05/26 03:51:11;;;;;;;;;;;;;;;14.79;62.99;98942.38;7382006;19;19919;-78
2023/05/26 03:53:38;;;;;;;;;;;;;;;14.83;63.18;98935.72;7387208;19;19927;-78
2023/05/26 03:56:05;;;;;;;;;;;;;;;14.86;63.01;98932.72;7384803;19;19972;-78
2023/05/26 03:58:32;;;;;;;;;;;;;;;14.85;62.85;98933.72;7388458;19;19974;-79
2023/05/26 04:00:59;;;;;;;;;;;;;;;14.92;62.83;98933.88;7384747;19;19919;-78
2023/05/26 04:03:26;;;;;;;;;;;;;;;14.99;62.83;98937.53;7378730;19;19915;-78
2023/05/26 04:05:53;;;;;;;;;;;;;;;14.89;62.23;98937.69;7380394;19;19918;-78
2023/05/26 04:08:20;;;;;;;;;;;;;;;14.94;62.92;98945.19;7378667;19;19926;-78
2023/05/26 04:10:46;;;;;;;;;;;;;;;15.02;64.08;98944.34;7382288;19;20311;-78
2023/05/26 04:13:14;;;;;;;;;;;;;;;15.00;62.36;98949.00;7378669;19;19915;-78
2023/05/26 04:15:41;;;;;;;;;;;;;;;14.91;62.07;98943.69;7387939;19;19927;-78
2023/05/26 04:18:07;;;;;;;;;;;;;;;14.75;62.59;98946.41;7379436;19;19982;-78
2023/05/26 04:20:34;;;;;;;;;;;;;;;14.76;63.39;98948.03;7380109;19;20704;-78
2023/05/26 04:23:02;;;;;;;;;;;;;;;14.88;62.88;98946.72;7375610;19;19915;-78
2023/05/26 04:25:30;;;;;;;;;;;;;;;14.77;62.97;98947.06;7382362;19;19918;-78
2023/05/26 04:28:02;;;;;;;;;;;;;;;14.77;63.20;98949.72;7382098;19;19926;-78
2023/05/26 04:30:49;;;;;;;;;;;;;;;14.76;63.43;98953.38;7385497;19;19919;-78
2023/05/26 04:33:40;;;;;;;;;;;;;;;14.85;63.45;98954.19;7383277;19;20531;-78
2023/05/26 04:36:32;;;;;;;;;;;;;;;14.89;63.48;98952.84;7377887;19;19919;-78
2023/05/26 04:39:01;;;;;;;;;;;;;;;14.94;63.11;98950.53;7379678;19;19915;-78
2023/05/26 04:41:28;;;;;;;;;;;;;;;14.98;63.33;98956.34;7384033;19;19988;-78
2023/05/26 04:43:55;;;;;;;;;;;;;;;15.04;63.75;98955.66;7380062;19;19935;-79
2023/05/26 04:46:22;;;;;;;;;;;;;;;15.11;63.76;98954.81;7380870;19;19934;-79
2023/05/26 04:48:48;;;;;;;;;;;;;;;15.11;63.67;98961.97;7381851;19;20794;-78
2023/05/26 04:51:15;;;;;;;;;;;;;;;15.17;64.67;98961.31;7375204;19;19955;-78
2023/05/26 04:53:42;;;;;;;;;;;;;;;15.20;63.90;98950.28;7377278;19;20245;-78
2023/05/26 04:56:09;;;;;;;;;;;;;;;15.19;64.27;98953.13;7376168;19;20366;-79
2023/05/26 04:58:41;;;;;;;;;;;;;;;15.21;63.43;98941.28;7381449;19;19914;-78
2023/05/26 05:01:08;;;;;;;;;;;;;;;15.28;63.72;98946.78;7382072;19;19940;-78
2023/05/26 05:03:48;;;;;;;;;;;;;;;15.27;62.38;98948.63;7384329;19;19926;-78
2023/05/26 05:06:20;;;;;;;;;;;;;;;15.33;63.00;98955.09;7372819;19;19919;-77
2023/05/26 05:08:47;;;;;;;;;;;;;;;15.28;62.90;98955.59;7382576;19;19919;-78
2023/05/26 05:11:14;;;;;;;;;;;;;;;15.34;63.42;98952.22;7373387;19;19927;-77
2023/05/26 05:13:40;;;;;;;;;;;;;;;15.21;62.10;98961.78;7375255;19;19919;-78
2023/05/26 05:16:07;;;;;;;;;;;;;;;15.25;62.83;98955.94;7379808;19;19931;-78
2023/05/26 05:18:34;;;;;;;;;;;;;;;15.24;63.50;98962.25;7380335;19;19926;-78
2023/05/26 05:21:01;;;;;;;;;;;;;;;15.18;63.39;98960.28;7376260;19;21399;-79
2023/05/26 05:23:30;;;;;;;;;;;;;;;15.14;63.18;98964.31;7375265;19;19939;-79
2023/05/26 05:25:57;;;;;;;;;;;;;;;15.27;64.44;98972.59;7373655;19;20750;-79
2023/05/26 05:28:24;;;;;;;;;;;;;;;15.45;63.38;98975.03;7372287;19;19947;-79
2023/05/26 05:31:01;;;;;;;;;;;;;;;15.31;64.08;98971.25;7371187;19;20301;-79
2023/05/26 05:33:29;;;;;;;;;;;;;;;15.33;64.84;98973.75;7372906;19;19919;-78
2023/05/26 05:35:55;;;;;;;;;;;;;;;15.29;64.60;98980.41;7375970;19;20368;-78
2023/05/26 05:38:23;;;;;;;;;;;;;;;15.22;63.95;98979.44;7368154;19;19918;-78
2023/05/26 05:40:49;;;;;;;;;;;;;;;15.32;64.65;98977.41;7379932;19;20421;-78
2023/05/26 05:43:17;;;;;;;;;;;;;;;15.39;65.19;98985.56;7368482;19;21681;-80
2023/05/26 05:45:44;;;;;;;;;;;;;;;15.36;64.23;98984.88;7372821;19;19974;-79
2023/05/26 05:48:33;;;;;;;;;;;;;;;15.41;64.17;98987.06;7376277;19;19919;-79
2023/05/26 05:51:09;;;;;;;;;;;;;;;15.43;63.98;98986.88;7381440;19;19915;-80
2023/05/26 05:53:36;;;;;;;;;;;;;;;15.48;63.71;98993.38;7375212;19;20101;-78
2023/05/26 05:56:02;;;;;;;;;;;;;;;15.55;63.61;98990.81;7377344;19;20290;-80
2023/05/26 05:58:30;;;;;;;;;;;;;;;15.61;63.46;99003.47;7375158;19;19944;-78
2023/05/26 06:00:57;;;;;;;;;;;;;;;15.60;62.89;98999.16;7375188;19;20695;-79
2023/05/26 06:03:24;;;;;;;;;;;;;;;15.56;62.96;98990.66;7368814;19;19918;-77
2023/05/26 06:05:51;;;;;;;;;;;;;;;15.58;63.39;99001.16;7374858;19;19922;-77
2023/05/26 06:08:18;;;;;;;;;;;;;;;15.62;63.97;98998.97;7373121;19;23024;-80
2023/05/26 06:10:46;;;;;;;;;;;;;;;15.60;64.16;99001.81;7381325;19;20359;-79
2023/05/26 06:13:13;;;;;;;;;;;;;;;15.46;62.98;98994.53;7371487;19;19925;-79
2023/05/26 06:15:40;;;;;;;;;;;;;;;15.67;63.28;99002.78;7375337;19;19942;-78
2023/05/26 06:18:07;;;;;;;;;;;;;;;15.57;62.78;99003.00;7373973;19;19926;-79
2023/05/26 06:20:34;;;;;;;;;;;;;;;15.54;62.35;99008.66;7380762;19;20775;-79
2023/05/26 06:23:01;;;;;;;;;;;;;;;15.57;62.56;99011.00;7374882;19;19950;-77
2023/05/26 06:25:28;;;;;;;;;;;;;;;15.64;63.39;99011.16;7379385;19;19919;-80
2023/05/26 06:27:55;;;;;;;;;;;;;;;15.71;62.79;99009.47;7369151;19;21005;-79
2023/05/26 06:30:23;;;;;;;;;;;;;;;15.51;61.71;99001.03;7384588;19;19939;-79
2023/05/26 06:32:58;;;;;;;;;;;;;;;15.63;62.76;99013.97;7379984;19;20339;-78
2023/05/26 06:35:25;;;;;;;;;;;;;;;15.54;61.02;99011.34;7376527;19;20321;-79
2023/05/26 06:37:53;;;;;;;;;;;;;;;15.70;61.96;99005.13;7375595;19;19942;-78
2023/05/26 06:40:19;;;;;;;;;;;;;;;15.74;61.99;99008.28;7377764;19;19936;-76
2023/05/26 06:42:46;;;;;;;;;;;;;;;15.84;62.80;99005.41;7374744;19;20359;-80
2023/05/26 06:45:13;;;;;;;;;;;;;;;15.87;61.39;99005.06;7375752;19;20558;-78
2023/05/26 06:47:40;;;;;;;;;;;;;;;15.97;61.58;99011.84;7376969;19;19930;-80
2023/05/26 06:50:14;;;;;;;;;;;;;;;16.04;61.74;99008.50;7377260;19;19939;-78
2023/05/26 06:52:44;;;;;;;;;;;;;;;16.09;59.61;99008.78;7373917;19;20345;-78
2023/05/26 06:55:11;;;;;;;;;;;;;;;16.01;58.85;99012.34;7377351;19;20006;-80
2023/05/26 06:57:38;;;;;;;;;;;;;;;16.10;59.18;99013.94;7376404;19;21484;-79
2023/05/26 07:00:05;;;;;;;;;;;;;;;16.07;57.95;99016.97;7378612;19;19958;-78
2023/05/26 07:02:32;;;;;;;;;;;;;;;16.04;58.44;99012.00;7376193;19;20330;-77
2023/05/26 07:05:20;;;;;;;;;;;;;;;16.16;58.28;99001.72;7376163;19;19926;-78
2023/05/26 07:07:47;;;;;;;;;;;;;;;16.16;60.28;99007.91;7372491;19;19929;-78
2023/05/26 07:10:15;;;;;;;;;;;;;;;16.22;59.63;99007.22;7370436;19;20942;-80
2023/05/26 07:12:42;;;;;;;;;;;;;;;16.27;59.02;98995.97;7375946;19;19939;-79
2023/05/26 07:15:16;;;;;;;;;;;;;;;16.42;61.85;99004.06;7378036;19;20487;-80
2023/05/26 07:17:43;;;;;;;;;;;;;;;16.42;58.38;98999.56;7376364;19;19918;-78
2023/05/26 07:20:11;;;;;;;;;;;;;;;16.64;59.75;99000.56;7376085;19;20656;-78
2023/05/26 07:22:37;;;;;;;;;;;;;;;16.74;59.25;99007.50;7374944;19;20687;-77
2023/05/26 07:25:10;;;;;;;;;;;;;;;16.70;56.80;99003.53;7373797;19;19922;-78
2023/05/26 07:27:43;;;;;;;;;;;;;;;16.80;56.51;99009.50;7374905;19;20353;-78
2023/05/26 07:30:11;;;;;;;;;;;;;;;16.79;57.61;98999.81;7373589;19;20345;-78
2023/05/26 07:33:07;;;;;;;;;;;;;;;16.88;60.04;99004.91;7369239;19;19933;-77
2023/05/26 07:35:34;;;;;;;;;;;;;;;16.95;57.25;99009.53;7377380;19;20600;-77
2023/05/26 07:38:02;;;;;;;;;;;;;;;17.00;58.19;99007.97;7379808;19;20237;-77
2023/05/26 07:40:34;;;;;;;;;;;;;;;16.96;57.02;99011.19;7375872;19;19932;-79
2023/05/26 07:43:04;;;;;;;;;;;;;;;16.96;57.79;99003.19;7374850;19;19939;-78
2023/05/26 07:45:30;;;;;;;;;;;;;;;16.88;56.01;99012.09;7379709;19;19922;-78
2023/05/26 07:47:57;;;;;;;;;;;;;;;16.81;56.84;99009.31;7380253;19;19925;-78
2023/05/26 07:50:24;;;;;;;;;;;;;;;16.89;56.77;99005.72;7373220;19;19922;-76
2023/05/26 07:52:51;;;;;;;;;;;;;;;16.97;56.07;99007.50;7374590;19;19919;-80
2023/05/26 07:55:17;;;;;;;;;;;;;;;17.10;56.53;99013.06;7378724;19;19925;-79
2023/05/26 07:57:44;;;;;;;;;;;;;;;17.11;56.56;99012.88;7375891;19;19945;-77
2023/05/26 08:00:11;;;;;;;;;;;;;;;17.10;57.25;99008.53;7376006;19;19910;-83
2023/05/26 08:02:41;;;;;;;;;;;;;;;17.17;56.46;99005.13;7374517;19;19932;-80
2023/05/26 08:05:08;;;;;;;;;;;;;;;17.22;57.83;99008.94;7376360;19;19931;-77
2023/05/26 08:07:35;;;;;;;;;;;;;;;17.34;57.89;99003.94;7371082;19;20459;-77
2023/05/26 08:10:02;;;;;;;;;;;;;;;17.26;59.48;99009.38;7375772;19;19919;-77
2023/05/26 08:12:28;;;;;;;;;;;;;;;17.26;58.81;99006.72;7368222;19;19930;-77
2023/05/26 08:14:56;;;;;;;;;;;;;;;17.36;59.08;99007.28;7374136;19;19919;-78
2023/05/26 08:17:23;;;;;;;;;;;;;;;17.42;59.27;99005.72;7371824;19;19923;-79
2023/05/26 08:19:50;;;;;;;;;;;;;;;17.43;59.34;99002.88;7375219;19;19956;-76
2023/05/26 08:22:16;;;;;;;;;;;;;;;17.57;58.07;99003.88;7370337;19;19999;-78
2023/05/26 08:24:43;;;;;;;;;;;;;;;17.61;59.34;99010.50;7374303;19;19925;-76
2023/05/26 08:27:10;;;;;;;;;;;;;;;17.70;58.85;99008.56;7372860;19;19911;-78
2023/05/26 08:29:36;;;;;;;;;;;;;;;17.75;56.72;99011.53;7374486;19;20396;-77
2023/05/26 08:32:04;;;;;;;;;;;;;;;17.84;57.24;99005.06;7372684;19;19919;-79
2023/05/26 08:34:30;;;;;;;;;;;;;;;17.73;56.21;99003.66;7372138;19;20010;-77
2023/05/26 08:36:57;;;;;;;;;;;;;;;17.83;58.39;99003.41;7369956;19;20029;-76
2023/05/26 08:39:24;;;;;;;;;;;;;;;17.91;57.39;99005.16;7371446;19;20432;-80
2023/05/26 08:41:54;;;;;;;;;;;;;;;18.09;56.09;99004.72;7376472;19;19923;-76
2023/05/26 08:44:21;;;;;;;;;;;;;;;17.95;56.68;99001.06;7372919;19;19923;-77
2023/05/26 08:46:49;;;;;;;;;;;;;;;17.84;57.10;99006.91;7379387;19;19911;-78
2023/05/26 08:49:19;;;;;;;;;;;;;;;17.92;57.80;99006.81;7374578;19;19926;-78
2023/05/26 08:51:47;;;;;;;;;;;;;;;17.83;57.68;99003.41;7369937;19;19911;-76
2023/05/26 08:54:13;;;;;;;;;;;;;;;17.89;59.85;99001.84;7370482;19;19918;-76
2023/05/26 08:56:40;;;;;;;;;;;;;;;18.04;62.11;99007.16;7372874;19;19919;-77
2023/05/26 08:59:08;;;;;;;;;;;;;;;18.19;58.53;99005.25;7374790;19;19937;-78
2023/05/26 09:01:36;;;;;;;;;;;;;;;18.38;57.03;99001.97;7371925;19;19974;-78
2023/05/26 09:04:03;;;;;;;;;;;;;;;18.51;57.76;99000.44;7374098;19;19918;-77
2023/05/26 09:06:31;;;;;;;;;;;;;;;18.60;56.81;98994.75;7373246;19;19926;-79
2023/05/26 09:08:57;;;;;;;;;;;;;;;18.73;56.27;98999.41;7377860;19;19919;-77
2023/05/26 09:11:25;;;;;;;;;;;;;;;18.71;56.80;98997.94;7374668;19;19935;-79
2023/05/26 09:13:53;;;;;;;;;;;;;;;18.85;54.59;99002.41;7378128;19;19922;-78
2023/05/26 09:16:23;;;;;;;;;;;;;;;18.58;54.79;98995.97;7372169;19;19918;-77
2023/05/26 09:18:58;;;;;;;;;;;;;;;18.91;54.67;98993.63;7373209;19;19918;-78
2023/05/26 09:21:25;;;;;;;;;;;;;;;18.97;54.16;99000.06;7369852;19;19998;-81
2023/05/26 09:23:56;;;;;;;;;;;;;;;19.13;54.75;99007.81;7367801;19;19927;-81
2023/05/26 09:26:30;;;;;;;;;;;;;;;19.13;54.22;99013.16;7375853;19;19925;-80
2023/05/26 09:29:00;;;;;;;;;;;;;;;18.82;53.87;99006.31;7375590;19;19932;-78
2023/05/26 09:31:37;;;;;;;;;;;;;;;18.82;55.02;98998.28;7374376;19;19938;-77
2023/05/26 09:34:04;;;;;;;;;;;;;;;19.04;56.31;99003.63;7378566;19;19926;-75
2023/05/26 09:36:32;;;;;;;;;;;;;;;19.27;55.05;99008.72;7364589;19;19923;-79
2023/05/26 09:38:59;;;;;;;;;;;;;;;19.55;54.10;99000.63;7375482;19;19936;-81
2023/05/26 09:41:39;;;;;;;;;;;;;;;19.88;53.13;99010.72;7372819;19;19959;-76
2023/05/26 09:44:10;;;;;;;;;;;;;;;19.92;53.79;99001.25;7366414;19;19930;-79
2023/05/26 09:46:37;;;;;;;;;;;;;;;20.02;52.31;99004.41;7373370;19;19910;-76
2023/05/26 09:49:07;;;;;;;;;;;;;;;20.09;52.20;99005.25;7376510;19;20044;-77
2023/05/26 09:51:35;;;;;;;;;;;;;;;20.24;51.44;99012.31;7367869;19;19933;-77
2023/05/26 09:54:04;;;;;;;;;;;;;;;20.49;51.43;99004.53;7378027;19;19911;-77
2023/05/26 09:56:33;;;;;;;;;;;;;;;20.97;50.42;98996.31;7373754;19;19918;-77
2023/05/26 09:59:00;;;;;;;;;;;;;;;20.77;49.81;99004.34;7381552;19;21841;-80
2023/05/26 10:01:27;;;;;;;;;;;;;;;21.10;49.82;98998.97;7373161;19;19922;-80
2023/05/26 10:03:54;;;;;;;;;;;;;;;21.50;48.21;98998.13;7383375;19;19943;-79
2023/05/26 10:06:21;;;;;;;;;;;;;;;21.52;47.88;98999.56;7386399;19;19929;-79
2023/05/26 10:08:50;;;;;;;;;;;;;;;21.94;48.09;98997.34;7386846;19;19919;-77
2023/05/26 10:11:16;;;;;;;;;;;;;;;21.82;47.98;98988.28;7386616;19;19914;-78
2023/05/26 10:13:43;;;;;;;;;;;;;;;21.76;47.49;98997.22;7387608;19;19974;-81
2023/05/26 10:16:10;;;;;;;;;;;;;;;22.02;45.27;98990.91;7385778;19;19922;-77
2023/05/26 10:18:36;;;;;;;;;;;;;;;22.29;45.53;98989.72;7388590;19;19918;-80
2023/05/26 10:21:05;;;;;;;;;;;;;;;22.29;44.59;98992.41;7389541;19;20129;-75
2023/05/26 10:23:34;;;;;;;;;;;;;;;22.35;45.97;98993.41;7385522;19;19915;-77
2023/05/26 10:26:04;;;;;;;;;;;;;;;22.19;45.36;98994.75;7375134;19;19923;-76
2023/05/26 10:28:45;;;;;;;;;;;;;;;21.90;45.63;98991.53;7375969;19;19974;-81
2023/05/26 10:31:12;;;;;;;;;;;;;;;21.98;46.36;98993.16;7372458;19;19940;-83
2023/05/26 10:33:40;;;;;;;;;;;;;;;21.58;46.96;98987.94;7374679;19;19979;-78
2023/05/26 10:36:10;;;;;;;;;;;;;;;21.58;48.35;98981.72;7377736;19;19947;-78
2023/05/26 10:38:37;;;;;;;;;;;;;;;21.27;49.04;98986.75;7373938;19;20721;-76
2023/05/26 10:41:11;;;;;;;;;;;;;;;21.22;49.20;98978.50;7372704;19;19919;-77
2023/05/26 10:43:38;;;;;;;;;;;;;;;21.31;48.82;98986.34;7376213;19;20006;-75
2023/05/26 10:46:05;;;;;;;;;;;;;;;21.32;48.16;98980.72;7382292;19;19918;-79
2023/05/26 10:48:54;;;;;;;;;;;;;;;21.30;47.81;98973.91;7377067;19;19923;-77
2023/05/26 10:51:24;;;;;;;;;;;;;;;21.22;49.20;98980.31;7375575;19;19986;-77
2023/05/26 10:53:53;;;;;;;;;;;;;;;21.16;48.24;98973.94;7378752;19;19927;-78
2023/05/26 10:56:25;;;;;;;;;;;;;;;21.29;48.36;98972.25;7380696;19;20312;-77
2023/05/26 10:58:56;;;;;;;;;;;;;;;21.18;48.31;98968.34;7372504;19;19925;-75
2023/05/26 11:01:25;;;;;;;;;;;;;;;21.34;47.27;98970.59;7375184;19;20967;-76
2023/05/26 11:03:56;;;;;;;;;;;;;;;21.24;48.76;98970.19;7368987;19;20356;-74
2023/05/26 11:06:52;;;;;;;;;;;;;;;21.34;47.20;98965.19;7375386;19;19922;-78
2023/05/26 11:09:22;;;;;;;;;;;;;;;21.32;47.95;98978.03;7372093;19;19925;-77
2023/05/26 11:11:51;;;;;;;;;;;;;;;21.47;48.01;98975.13;7379244;19;19911;-77
2023/05/26 11:14:25;;;;;;;;;;;;;;;21.37;46.95;98970.16;7374950;19;19914;-83
2023/05/26 11:16:54;;;;;;;;;;;;;;;21.44;47.97;98962.94;7377582;19;19923;-80
2023/05/26 11:19:27;;;;;;;;;;;;;;;21.45;47.96;98961.88;7373764;19;19927;-76
2023/05/26 11:21:53;;;;;;;;;;;;;;;21.44;47.52;98957.53;7377672;19;19915;-79
2023/05/26 11:24:20;;;;;;;;;;;;;;;21.58;48.10;98952.13;7380038;19;19923;-76
2023/05/26 11:26:47;;;;;;;;;;;;;;;21.53;49.27;98951.94;7376017;19;19910;-77
2023/05/26 11:29:15;;;;;;;;;;;;;;;21.67;48.27;98953.56;7378093;19;20296;-76
2023/05/26 11:31:41;;;;;;;;;;;;;;;21.52;48.98;98948.41;7378616;19;19925;-78
2023/05/26 11:34:09;;;;;;;;;;;;;;;21.67;47.38;98962.44;7378987;19;19933;-79
2023/05/26 11:36:36;;;;;;;;;;;;;;;21.84;46.39;98954.69;7378394;19;19982;-81
2023/05/26 11:39:04;;;;;;;;;;;;;;;22.01;47.24;98959.59;7381525;19;20518;-76
2023/05/26 11:41:30;;;;;;;;;;;;;;;22.11;48.67;98944.59;7377089;19;19918;-77
2023/05/26 11:43:57;;;;;;;;;;;;;;;22.21;46.54;98943.34;7378643;19;19930;-77
2023/05/26 11:46:27;;;;;;;;;;;;;;;22.35;45.92;98948.44;7383401;19;19941;-80
2023/05/26 11:48:54;;;;;;;;;;;;;;;22.30;46.89;98947.41;7375783;19;19925;-77
2023/05/26 11:51:21;;;;;;;;;;;;;;;22.22;46.25;98943.16;7374816;19;20030;-78
2023/05/26 11:53:55;;;;;;;;;;;;;;;22.35;46.55;98945.75;7377755;19;19914;-76
2023/05/26 11:56:21;;;;;;;;;;;;;;;22.43;46.83;98943.81;7379165;19;19922;-78
2023/05/26 11:58:52;;;;;;;;;;;;;;;22.39;46.75;98943.44;7378700;19;21105;-77
2023/05/26 12:01:28;;;;;;;;;;;;;;;22.52;45.95;98939.81;7385857;19;19926;-80
2023/05/26 12:03:56;;;;;;;;;;;;;;;22.64;46.95;98946.13;7377464;19;19943;-79
2023/05/26 12:06:23;;;;;;;;;;;;;;;22.70;45.83;98947.16;7374995;19;19915;-78
2023/05/26 12:08:50;;;;;;;;;;;;;;;22.74;44.89;98948.34;7384645;19;19932;-81
2023/05/26 12:11:17;;;;;;;;;;;;;;;22.95;45.05;98950.63;7382384;19;19923;-73
2023/05/26 12:13:44;;;;;;;;;;;;;;;23.41;46.99;98941.28;7386504;19;19982;-82
2023/05/26 12:16:23;;;;;;;;;;;;;;;23.66;41.66;98941.19;7383481;19;19969;-77
2023/05/26 12:18:51;;;;;;;;;;;;;;;23.47;42.16;98941.44;7382018;19;19948;-77
2023/05/26 12:21:17;;;;;;;;;;;;;;;23.02;42.23;98942.53;7378162;19;19926;-77
2023/05/26 12:23:45;;;;;;;;;;;;;;;23.16;42.61;98940.50;7375624;19;19911;-77
2023/05/26 12:26:15;;;;;;;;;;;;;;;23.01;42.48;98940.84;7383092;19;19947;-79
2023/05/26 12:28:43;;;;;;;;;;;;;;;23.18;43.63;98947.34;7383853;19;19951;-80
2023/05/26 12:31:12;;;;;;;;;;;;;;;23.32;43.85;98933.69;7384301;19;20403;-83
2023/05/26 12:33:39;;;;;;;;;;;;;;;23.23;42.76;98936.69;7382891;19;19919;-80
2023/05/26 12:36:06;;;;;;;;;;;;;;;22.80;44.56;98928.56;7383276;19;19939;-81
2023/05/26 12:38:42;;;;;;;;;;;;;;;22.73;43.53;98936.72;7378878;19;19994;-80
2023/05/26 12:41:09;;;;;;;;;;;;;;;22.70;43.49;98930.97;7379464;19;19968;-81
2023/05/26 12:43:36;;;;;;;;;;;;;;;22.77;42.88;98921.75;7376832;19;19922;-80
2023/05/26 12:46:02;;;;;;;;;;;;;;;22.91;44.13;98924.34;7380801;19;19951;-79
2023/05/26 12:48:29;;;;;;;;;;;;;;;23.11;42.46;98940.34;7378869;19;19939;-78
2023/05/26 12:50:56;;;;;;;;;;;;;;;23.25;40.56;98927.53;7378052;19;19923;-79
2023/05/26 12:53:24;;;;;;;;;;;;;;;23.60;39.86;98927.78;7374497;19;19918;-80
2023/05/26 12:55:52;;;;;;;;;;;;;;;23.86;41.67;98930.16;7375756;19;20735;-80